Time;durP1;ratioP1;P1;durP2;ratioP2;P2;SDS_P1;SDS_P2;PMS_P1;PMS_P2;Temp;Humidity;BMP_temperature;BMP_pressure;BME280_temperature;BME280_humidity;BME280_pressure;Samples;Min_cycle;Max_cycle;Signal;HPM_P1;HPM_P2
2023/07/20 00:02:07;;;;;;;;;;;;;;;28.21;56.87;97552.22;5041092;28;20353;-71
2023/07/20 00:04:34;;;;;;;;;;;;;;;28.13;56.68;97541.59;5042920;28;19925;-72
2023/07/20 00:07:01;;;;;;;;;;;;;;;28.13;57.01;97534.13;5041646;28;19929;-71
2023/07/20 00:09:27;;;;;;;;;;;;;;;28.10;57.04;97542.38;5039517;28;19925;-71
2023/07/20 00:11:55;;;;;;;;;;;;;;;28.10;56.99;97540.41;5039635;28;19926;-71
2023/07/20 00:14:21;;;;;;;;;;;;;;;28.06;57.30;97555.28;5042790;28;19971;-71
2023/07/20 00:16:55;;;;;;;;;;;;;;;28.11;57.30;97541.19;5050317;28;19936;-71
2023/07/20 00:19:22;;;;;;;;;;;;;;;27.91;57.86;97548.94;5039308;28;20001;-71
2023/07/20 00:21:49;;;;;;;;;;;;;;;27.94;58.06;97537.19;5039370;28;19925;-71
2023/07/20 00:24:15;;;;;;;;;;;;;;;27.98;57.93;97548.94;5042312;28;19963;-71
2023/07/20 00:26:41;;;;;;;;;;;;;;;28.05;57.89;97551.75;5042705;28;19925;-71
2023/07/20 00:29:09;;;;;;;;;;;;;;;28.04;57.66;97544.66;5040254;28;19921;-71
2023/07/20 00:31:36;;;;;;;;;;;;;;;27.96;58.11;97536.78;5039161;28;19921;-71
2023/07/20 00:34:03;;;;;;;;;;;;;;;27.73;58.60;97548.06;5040584;28;19925;-72
2023/07/20 00:36:29;;;;;;;;;;;;;;;27.84;58.70;97548.88;5024867;28;19933;-72
2023/07/20 00:38:56;;;;;;;;;;;;;;;27.84;58.45;97546.94;5041797;28;19997;-72
2023/07/20 00:41:22;;;;;;;;;;;;;;;27.83;58.86;97542.59;5038922;28;19968;-71
2023/07/20 00:43:49;;;;;;;;;;;;;;;27.82;58.57;97540.28;5038990;28;19925;-71
2023/07/20 00:46:16;;;;;;;;;;;;;;;27.89;58.69;97541.06;5049568;28;19944;-72
2023/07/20 00:48:43;;;;;;;;;;;;;;;27.89;58.70;97543.81;5042168;28;20028;-72
2023/07/20 00:51:10;;;;;;;;;;;;;;;27.97;58.32;97554.84;5022290;28;19935;-71
2023/07/20 00:53:36;;;;;;;;;;;;;;;27.96;58.65;97558.75;5039305;28;20043;-71
2023/07/20 00:56:03;;;;;;;;;;;;;;;27.96;58.60;97556.78;5040522;28;19948;-72
2023/07/20 00:58:30;;;;;;;;;;;;;;;27.96;58.41;97562.28;5040708;28;20421;-72
2023/07/20 01:00:56;;;;;;;;;;;;;;;27.91;58.74;97565.41;5041465;28;20071;-72
2023/07/20 01:03:24;;;;;;;;;;;;;;;27.86;58.79;97558.31;5038592;28;20001;-72
2023/07/20 01:05:55;;;;;;;;;;;;;;;27.88;58.86;97561.44;5038499;28;19952;-72
2023/07/20 01:08:25;;;;;;;;;;;;;;;27.90;58.66;97561.06;5037131;28;19926;-72
2023/07/20 01:10:55;;;;;;;;;;;;;;;27.89;58.62;97552.03;5038511;28;19968;-72
2023/07/20 01:13:22;;;;;;;;;;;;;;;27.89;58.60;97554.00;5038359;28;19952;-72
2023/07/20 01:15:54;;;;;;;;;;;;;;;27.87;59.05;97548.91;5045517;28;20001;-72
2023/07/20 01:18:20;;;;;;;;;;;;;;;27.78;59.16;97542.19;5030217;28;19953;-72
2023/07/20 01:20:48;;;;;;;;;;;;;;;27.78;59.06;97545.72;5030438;28;19996;-72
2023/07/20 01:23:27;;;;;;;;;;;;;;;27.73;59.39;97537.09;5030318;28;19932;-72
2023/07/20 01:26:05;;;;;;;;;;;;;;;27.62;59.50;97541.72;5030925;28;19961;-71
2023/07/20 01:29:07;;;;;;;;;;;;;;;27.66;59.70;97537.84;5032475;28;20065;-71
2023/07/20 01:31:37;;;;;;;;;;;;;;;27.67;59.53;97533.91;5038463;28;19992;-71
2023/07/20 01:34:04;;;;;;;;;;;;;;;27.70;59.55;97538.63;5040262;28;19925;-71
2023/07/20 01:36:32;;;;;;;;;;;;;;;27.57;59.49;97536.59;5041606;28;20292;-71
2023/07/20 01:38:59;;;;;;;;;;;;;;;27.41;60.02;97538.81;5040517;28;19967;-72
2023/07/20 01:41:26;;;;;;;;;;;;;;;27.44;60.28;97540.81;5038158;28;19926;-72
2023/07/20 01:43:52;;;;;;;;;;;;;;;27.48;59.89;97530.66;5038329;28;19957;-72
2023/07/20 01:46:18;;;;;;;;;;;;;;;27.52;59.79;97539.69;5024045;28;20375;-72
2023/07/20 01:48:46;;;;;;;;;;;;;;;27.40;60.07;97546.25;5023836;28;19921;-70
2023/07/20 01:51:12;;;;;;;;;;;;;;;27.30;60.29;97546.94;5038700;28;20415;-71
2023/07/20 01:53:39;;;;;;;;;;;;;;;27.28;60.81;97546.56;5038171;28;19926;-72
2023/07/20 01:56:05;;;;;;;;;;;;;;;27.08;61.36;97550.72;5039866;28;19928;-71
2023/07/20 01:58:31;;;;;;;;;;;;;;;27.30;61.13;97555.97;5023905;28;20402;-71
2023/07/20 02:00:58;;;;;;;;;;;;;;;27.33;61.27;97549.72;5040792;28;19972;-71
2023/07/20 02:03:26;;;;;;;;;;;;;;;27.38;60.34;97550.53;5037954;28;19936;-71
2023/07/20 02:05:54;;;;;;;;;;;;;;;27.41;60.80;97556.06;5038089;28;19937;-71
2023/07/20 02:08:20;;;;;;;;;;;;;;;27.11;61.39;97556.22;5041408;28;19933;-72
2023/07/20 02:10:47;;;;;;;;;;;;;;;27.27;61.43;97553.19;5041232;28;19925;-72
2023/07/20 02:13:14;;;;;;;;;;;;;;;27.19;61.77;97562.53;5038479;28;19936;-71
2023/07/20 02:15:40;;;;;;;;;;;;;;;27.20;61.85;97562.16;5043785;28;19925;-71
2023/07/20 02:18:07;;;;;;;;;;;;;;;27.20;61.80;97559.41;5041297;28;19926;-71
2023/07/20 02:20:33;;;;;;;;;;;;;;;27.16;62.12;97558.63;5023524;28;19996;-72
2023/07/20 02:23:01;;;;;;;;;;;;;;;27.14;61.96;97554.69;5040271;28;19956;-72
2023/07/20 02:25:27;;;;;;;;;;;;;;;27.18;61.81;97548.03;5041056;28;19965;-72
2023/07/20 02:27:54;;;;;;;;;;;;;;;26.98;62.48;97545.94;5023775;28;19968;-72
2023/07/20 02:30:20;;;;;;;;;;;;;;;27.06;62.72;97555.78;5044544;28;19951;-72
2023/07/20 02:32:48;;;;;;;;;;;;;;;27.13;62.25;97555.84;5044501;28;20232;-72
2023/07/20 02:35:14;;;;;;;;;;;;;;;27.15;62.52;97554.28;5041397;28;20319;-72
2023/07/20 02:37:41;;;;;;;;;;;;;;;27.22;62.19;97556.31;5041103;28;19960;-71
2023/07/20 02:40:09;;;;;;;;;;;;;;;27.21;62.17;97571.97;5025287;28;19953;-71
2023/07/20 02:42:35;;;;;;;;;;;;;;;27.19;62.21;97559.81;5044529;28;20026;-71
2023/07/20 02:45:02;;;;;;;;;;;;;;;27.23;62.30;97563.38;5043869;28;19996;-71
2023/07/20 02:47:29;;;;;;;;;;;;;;;27.15;62.46;97558.97;5047842;28;20016;-71
2023/07/20 02:49:56;;;;;;;;;;;;;;;27.18;62.32;97575.47;5041149;28;19992;-72
2023/07/20 02:52:23;;;;;;;;;;;;;;;27.15;62.33;97575.44;5044289;28;19932;-71
2023/07/20 02:54:49;;;;;;;;;;;;;;;27.04;62.92;97578.09;5044381;28;19926;-71
2023/07/20 02:57:17;;;;;;;;;;;;;;;26.97;62.98;97572.53;5041050;28;19926;-71
2023/07/20 02:59:43;;;;;;;;;;;;;;;26.96;63.51;97576.44;5040872;28;19928;-71
2023/07/20 03:02:10;;;;;;;;;;;;;;;26.94;63.50;97584.25;5043153;28;19925;-71
2023/07/20 03:04:37;;;;;;;;;;;;;;;27.03;63.48;97572.97;5044122;28;19933;-71
2023/07/20 03:07:04;;;;;;;;;;;;;;;26.96;63.50;97567.44;5024708;28;19925;-72
2023/07/20 03:09:30;;;;;;;;;;;;;;;26.98;63.21;97560.44;5040570;28;19925;-71
2023/07/20 03:11:56;;;;;;;;;;;;;;;26.97;62.94;97567.06;5042270;28;19984;-71
2023/07/20 03:14:24;;;;;;;;;;;;;;;27.02;62.86;97569.44;5045398;28;19952;-71
2023/07/20 03:16:51;;;;;;;;;;;;;;;27.06;63.02;97572.22;5051781;28;19931;-71
2023/07/20 03:19:17;;;;;;;;;;;;;;;27.05;62.86;97573.41;5022527;28;20339;-71
2023/07/20 03:21:44;;;;;;;;;;;;;;;27.02;63.09;97574.16;5040282;28;19926;-72
2023/07/20 03:24:10;;;;;;;;;;;;;;;27.06;62.74;97574.97;5042764;28;19925;-72
2023/07/20 03:26:37;;;;;;;;;;;;;;;27.06;62.97;97574.97;5043736;28;19932;-72
2023/07/20 03:29:05;;;;;;;;;;;;;;;27.05;62.55;97574.16;5042088;28;19925;-72
2023/07/20 03:31:32;;;;;;;;;;;;;;;27.05;62.38;97576.91;5039819;28;19973;-72
2023/07/20 03:33:59;;;;;;;;;;;;;;;27.01;62.74;97559.66;5040962;28;19929;-72
2023/07/20 03:36:25;;;;;;;;;;;;;;;26.98;62.70;97568.66;5043398;28;19926;-72
2023/07/20 03:38:51;;;;;;;;;;;;;;;26.92;62.79;97570.16;5043314;28;19925;-72
2023/07/20 03:41:19;;;;;;;;;;;;;;;26.70;63.56;97574.63;5031504;28;19935;-72
2023/07/20 03:43:46;;;;;;;;;;;;;;;26.82;63.17;97573.59;5031568;28;20035;-72
2023/07/20 03:46:12;;;;;;;;;;;;;;;26.73;62.99;97573.88;5042084;28;19925;-72
2023/07/20 03:48:40;;;;;;;;;;;;;;;26.80;61.98;97584.91;5043326;28;19964;-72
2023/07/20 03:51:06;;;;;;;;;;;;;;;26.72;62.53;97577.75;5039933;28;20003;-72
2023/07/20 03:53:33;;;;;;;;;;;;;;;26.65;62.85;97580.41;5039793;28;19926;-72
2023/07/20 03:55:59;;;;;;;;;;;;;;;26.71;62.47;97587.13;5040579;28;20016;-72
2023/07/20 03:58:26;;;;;;;;;;;;;;;26.75;62.22;97582.50;5025425;28;20021;-72
2023/07/20 04:00:52;;;;;;;;;;;;;;;26.68;62.67;97592.56;5042878;28;19948;-72
2023/07/20 04:03:19;;;;;;;;;;;;;;;26.74;62.63;97589.13;5039603;28;19980;-73
2023/07/20 04:05:47;;;;;;;;;;;;;;;26.61;62.81;97598.78;5021873;28;19972;-72
2023/07/20 04:08:14;;;;;;;;;;;;;;;26.73;62.24;97586.78;5042259;28;20314;-72
2023/07/20 04:10:40;;;;;;;;;;;;;;;26.75;62.48;97590.72;5042847;28;19929;-72
2023/07/20 04:13:07;;;;;;;;;;;;;;;26.59;62.67;97579.19;5040765;28;19937;-72
2023/07/20 04:15:33;;;;;;;;;;;;;;;26.40;63.56;97597.78;5044204;28;19929;-72
2023/07/20 04:18:00;;;;;;;;;;;;;;;26.55;62.82;97596.75;5042862;28;19927;-71
2023/07/20 04:20:27;;;;;;;;;;;;;;;26.60;62.18;97605.44;5024974;28;19964;-70
2023/07/20 04:22:54;;;;;;;;;;;;;;;26.69;62.29;97611.38;5042621;28;19960;-71
2023/07/20 04:25:21;;;;;;;;;;;;;;;26.51;62.92;97610.41;5039166;28;19952;-71
2023/07/20 04:27:47;;;;;;;;;;;;;;;26.57;62.53;97608.13;5021452;28;19925;-72
2023/07/20 04:30:15;;;;;;;;;;;;;;;26.57;62.43;97606.19;5042235;28;19984;-72
2023/07/20 04:32:45;;;;;;;;;;;;;;;26.52;62.06;97603.75;5042828;28;19968;-71
2023/07/20 04:35:12;;;;;;;;;;;;;;;26.35;62.85;97607.09;5040374;28;19933;-71
2023/07/20 04:37:45;;;;;;;;;;;;;;;26.48;62.51;97602.94;5021855;28;19929;-71
2023/07/20 04:40:13;;;;;;;;;;;;;;;26.48;62.31;97611.16;5023941;28;19925;-71
2023/07/20 04:42:39;;;;;;;;;;;;;;;26.55;62.18;97604.97;5042648;28;19987;-71
2023/07/20 04:45:06;;;;;;;;;;;;;;;26.38;62.15;97616.50;5041814;28;19964;-71
2023/07/20 04:47:32;;;;;;;;;;;;;;;26.46;62.11;97615.44;5044470;28;20376;-71
2023/07/20 04:49:59;;;;;;;;;;;;;;;25.90;62.84;97619.00;5039818;28;20020;-72
2023/07/20 04:52:25;;;;;;;;;;;;;;;25.93;63.67;97617.47;5042627;28;19948;-71
2023/07/20 04:54:52;;;;;;;;;;;;;;;25.94;63.48;97616.28;5042986;28;19925;-71
2023/07/20 04:57:19;;;;;;;;;;;;;;;26.12;62.83;97622.81;5030617;28;19925;-71
2023/07/20 04:59:45;;;;;;;;;;;;;;;25.69;64.01;97619.47;5012755;28;19972;-70
2023/07/20 05:02:12;;;;;;;;;;;;;;;25.82;63.94;97616.50;5012918;28;19933;-70
2023/07/20 05:04:38;;;;;;;;;;;;;;;25.88;63.76;97615.81;5030684;28;19925;-71
2023/07/20 05:07:05;;;;;;;;;;;;;;;25.88;63.52;97625.97;5030464;28;20410;-71
2023/07/20 05:09:31;;;;;;;;;;;;;;;25.94;63.05;97627.22;5030535;28;19996;-71
2023/07/20 05:11:57;;;;;;;;;;;;;;;25.85;63.34;97626.72;5030250;28;19936;-71
2023/07/20 05:14:25;;;;;;;;;;;;;;;26.02;62.88;97629.72;5030278;28;19932;-71
2023/07/20 05:16:52;;;;;;;;;;;;;;;26.03;62.83;97625.00;5045786;28;19936;-70
2023/07/20 05:19:18;;;;;;;;;;;;;;;25.96;63.21;97627.69;5030250;28;19988;-70
2023/07/20 05:21:44;;;;;;;;;;;;;;;25.77;63.70;97632.09;5030204;28;19960;-70
2023/07/20 05:24:10;;;;;;;;;;;;;;;25.57;64.59;97643.50;5030237;28;19968;-71
2023/07/20 05:26:37;;;;;;;;;;;;;;;25.58;64.99;97640.41;5030434;28;19993;-70
2023/07/20 05:29:04;;;;;;;;;;;;;;;25.62;64.82;97641.25;5030412;28;19925;-71
2023/07/20 05:31:32;;;;;;;;;;;;;;;25.70;64.87;97640.19;5030299;28;19984;-71
2023/07/20 05:33:58;;;;;;;;;;;;;;;25.62;65.86;97641.25;5030095;28;19936;-70
2023/07/20 05:36:25;;;;;;;;;;;;;;;25.55;66.76;97637.63;5030250;28;19933;-70
2023/07/20 05:38:51;;;;;;;;;;;;;;;25.85;65.61;97632.19;5029964;28;19925;-70
2023/07/20 05:41:17;;;;;;;;;;;;;;;25.92;65.07;97654.97;5029944;28;19968;-70
2023/07/20 05:43:44;;;;;;;;;;;;;;;25.88;65.85;97654.13;5029878;28;19980;-70
2023/07/20 05:46:10;;;;;;;;;;;;;;;25.94;66.43;97655.38;5039867;28;19936;-70
2023/07/20 05:48:38;;;;;;;;;;;;;;;25.80;67.12;97654.41;5041884;28;19932;-70
2023/07/20 05:51:04;;;;;;;;;;;;;;;25.85;67.48;97654.88;5039880;28;19969;-70
2023/07/20 05:53:31;;;;;;;;;;;;;;;25.73;68.91;97669.56;5038029;28;19926;-70
2023/07/20 05:55:57;;;;;;;;;;;;;;;25.89;68.33;97671.34;5038517;28;19932;-70
2023/07/20 05:58:24;;;;;;;;;;;;;;;25.90;68.63;97670.19;5041485;28;19944;-71
2023/07/20 06:00:50;;;;;;;;;;;;;;;25.98;68.40;97658.19;5027454;28;19941;-72
2023/07/20 06:03:17;;;;;;;;;;;;;;;26.04;67.92;97656.69;5042127;28;19932;-70
2023/07/20 06:05:45;;;;;;;;;;;;;;;26.04;68.27;97675.84;5041775;28;20007;-70
2023/07/20 06:08:11;;;;;;;;;;;;;;;25.99;68.67;97662.50;5044175;28;20009;-71
2023/07/20 06:10:37;;;;;;;;;;;;;;;25.95;70.18;97669.88;5045116;28;19964;-71
2023/07/20 06:13:04;;;;;;;;;;;;;;;26.08;70.24;97680.25;5043623;28;19924;-70
2023/07/20 06:15:32;;;;;;;;;;;;;;;26.01;71.23;97676.59;5046110;28;20019;-70
2023/07/20 06:17:59;;;;;;;;;;;;;;;26.13;71.36;97670.91;5045006;28;19925;-71
2023/07/20 06:20:25;;;;;;;;;;;;;;;26.00;72.81;97678.53;5027098;28;19980;-70
2023/07/20 06:22:53;;;;;;;;;;;;;;;25.40;77.83;97669.38;5044902;28;19925;-71
2023/07/20 06:25:20;;;;;;;;;;;;;;;25.74;76.59;97673.88;5033109;28;20439;-71
2023/07/20 06:27:46;;;;;;;;;;;;;;;25.41;78.52;97672.91;5033234;28;20020;-71
2023/07/20 06:30:13;;;;;;;;;;;;;;;25.34;80.42;97676.31;5033109;28;20046;-70
2023/07/20 06:32:39;;;;;;;;;;;;;;;25.72;78.29;97684.38;5033065;28;20012;-70
2023/07/20 06:35:06;;;;;;;;;;;;;;;25.96;76.46;97674.19;5023373;28;19948;-70
2023/07/20 06:37:33;;;;;;;;;;;;;;;26.27;73.98;97674.63;5032969;28;19964;-70
2023/07/20 06:40:01;;;;;;;;;;;;;;;26.46;72.33;97676.44;5041882;28;19935;-70
2023/07/20 06:42:27;;;;;;;;;;;;;;;26.58;70.66;97673.50;5044398;28;19925;-70
2023/07/20 06:44:54;;;;;;;;;;;;;;;26.61;70.16;97675.47;5044451;28;19972;-71
2023/07/20 06:47:20;;;;;;;;;;;;;;;26.63;69.35;97680.56;5048727;28;19925;-71
2023/07/20 06:49:46;;;;;;;;;;;;;;;26.91;67.33;97682.88;5041429;28;19925;-70
2023/07/20 06:52:13;;;;;;;;;;;;;;;26.49;68.35;97678.44;5025779;28;20051;-70
2023/07/20 06:54:39;;;;;;;;;;;;;;;26.81;68.37;97682.38;5044349;28;19925;-70
2023/07/20 06:57:07;;;;;;;;;;;;;;;26.69;66.96;97679.88;5042871;28;19932;-70
2023/07/20 06:59:33;;;;;;;;;;;;;;;27.06;66.61;97690.88;5040761;28;19984;-70
2023/07/20 07:02:00;;;;;;;;;;;;;;;27.23;65.53;97682.03;5041544;28;19953;-70
2023/07/20 07:04:27;;;;;;;;;;;;;;;27.11;66.00;97673.31;5044206;28;19996;-70
2023/07/20 07:06:53;;;;;;;;;;;;;;;27.36;65.09;97672.38;5044046;28;19925;-70
2023/07/20 07:09:20;;;;;;;;;;;;;;;27.21;64.76;97673.41;5040046;28;19948;-70
2023/07/20 07:11:47;;;;;;;;;;;;;;;27.24;65.05;97680.06;5040593;28;19925;-71
2023/07/20 07:14:15;;;;;;;;;;;;;;;27.29;64.61;97677.81;5043155;28;19940;-70
2023/07/20 07:16:41;;;;;;;;;;;;;;;27.35;63.80;97670.81;5051436;28;19935;-70
2023/07/20 07:19:08;;;;;;;;;;;;;;;27.35;63.17;97680.97;5041672;28;19925;-70
2023/07/20 07:21:34;;;;;;;;;;;;;;;27.32;62.93;97681.75;5040357;28;19989;-70
2023/07/20 07:24:01;;;;;;;;;;;;;;;27.08;63.28;97676.81;5041380;28;20341;-70
2023/07/20 07:26:27;;;;;;;;;;;;;;;27.31;63.37;97680.16;5043826;28;19925;-70
2023/07/20 07:28:53;;;;;;;;;;;;;;;27.48;62.52;97682.28;5043710;28;19925;-70
2023/07/20 07:31:22;;;;;;;;;;;;;;;27.38;62.69;97690.41;5040442;28;19941;-70
2023/07/20 07:33:48;;;;;;;;;;;;;;;27.45;62.21;97690.50;5040003;28;19929;-70
2023/07/20 07:36:15;;;;;;;;;;;;;;;27.67;61.46;97684.00;5043032;28;19925;-71
2023/07/20 07:38:42;;;;;;;;;;;;;;;27.60;60.73;97681.22;5025620;28;19932;-71
2023/07/20 07:41:09;;;;;;;;;;;;;;;26.80;60.28;97689.03;5041211;28;19925;-71
2023/07/20 07:43:35;;;;;;;;;;;;;;;26.19;62.62;97683.94;5022302;28;19925;-71
2023/07/20 07:46:02;;;;;;;;;;;;;;;26.90;62.94;97692.25;5048764;28;20347;-71
2023/07/20 07:48:29;;;;;;;;;;;;;;;27.20;62.08;97695.72;5025585;28;19976;-71
2023/07/20 07:50:56;;;;;;;;;;;;;;;27.06;61.69;97693.63;5042726;28;19925;-70
2023/07/20 07:53:22;;;;;;;;;;;;;;;27.30;60.55;97701.28;5022036;28;19983;-70
2023/07/20 07:55:48;;;;;;;;;;;;;;;27.27;60.38;97699.31;5039728;28;20006;-71
2023/07/20 07:58:15;;;;;;;;;;;;;;;26.71;60.70;97691.25;5042732;28;19925;-70
2023/07/20 08:00:41;;;;;;;;;;;;;;;26.47;60.27;97699.94;5025183;28;20006;-70
2023/07/20 08:03:08;;;;;;;;;;;;;;;26.76;60.98;97692.88;5040986;28;19925;-71
2023/07/20 08:05:35;;;;;;;;;;;;;;;27.36;59.95;97688.81;5039645;28;19936;-71
2023/07/20 08:08:02;;;;;;;;;;;;;;;27.55;59.47;97693.31;5022847;28;19977;-71
2023/07/20 08:10:28;;;;;;;;;;;;;;;27.73;58.34;97691.50;5042865;28;19933;-71
2023/07/20 08:12:54;;;;;;;;;;;;;;;27.24;58.07;97702.00;5042461;28;19925;-71
2023/07/20 08:15:21;;;;;;;;;;;;;;;27.57;57.96;97701.97;5024892;28;19957;-71
2023/07/20 08:17:48;;;;;;;;;;;;;;;27.68;57.27;97710.28;5030072;28;19933;-71
2023/07/20 08:20:17;;;;;;;;;;;;;;;27.76;56.67;97698.22;5024745;28;19948;-71
2023/07/20 08:22:45;;;;;;;;;;;;;;;27.66;56.75;97701.66;5041978;28;19931;-71
2023/07/20 08:25:11;;;;;;;;;;;;;;;27.77;56.04;97702.50;5040288;28;19963;-71
2023/07/20 08:27:38;;;;;;;;;;;;;;;27.77;56.02;97702.50;5039165;28;19925;-71
2023/07/20 08:30:05;;;;;;;;;;;;;;;27.58;55.75;97703.53;5022892;28;19925;-71
2023/07/20 08:32:31;;;;;;;;;;;;;;;27.74;54.34;97712.28;5042365;28;20107;-72
2023/07/20 08:34:58;;;;;;;;;;;;;;;27.66;54.43;97699.69;5041775;28;19925;-72
2023/07/20 08:37:24;;;;;;;;;;;;;;;28.00;54.71;97705.03;5039176;28;19926;-72
2023/07/20 08:39:52;;;;;;;;;;;;;;;27.63;54.20;97700.47;5021504;28;19948;-72
2023/07/20 08:42:18;;;;;;;;;;;;;;;27.99;54.27;97707.00;5039368;28;20016;-71
2023/07/20 08:44:46;;;;;;;;;;;;;;;28.24;52.57;97705.22;5039175;28;19925;-71
2023/07/20 08:47:13;;;;;;;;;;;;;;;27.73;53.80;97707.22;5047302;28;20054;-71
2023/07/20 08:49:40;;;;;;;;;;;;;;;28.24;53.47;97693.44;5038946;28;19925;-71
2023/07/20 08:52:07;;;;;;;;;;;;;;;28.27;53.23;97707.22;5040734;28;19929;-71
2023/07/20 08:54:34;;;;;;;;;;;;;;;28.34;51.60;97700.97;5042106;28;19952;-71
2023/07/20 08:57:04;;;;;;;;;;;;;;;28.03;52.09;97696.84;5041478;28;19936;-71
2023/07/20 08:59:30;;;;;;;;;;;;;;;28.26;51.78;97696.59;5038978;28;19989;-72
2023/07/20 09:01:57;;;;;;;;;;;;;;;28.23;50.87;97705.59;5039086;28;20302;-72
2023/07/20 09:04:24;;;;;;;;;;;;;;;28.05;49.82;97691.78;5042052;28;19936;-71
2023/07/20 09:06:51;;;;;;;;;;;;;;;28.25;49.79;97711.50;5042124;28;19925;-71
2023/07/20 09:09:18;;;;;;;;;;;;;;;27.59;46.74;97693.34;5039240;28;19971;-71
2023/07/20 09:11:47;;;;;;;;;;;;;;;27.16;49.21;97700.38;5039224;28;19932;-72
2023/07/20 09:14:14;;;;;;;;;;;;;;;27.11;48.56;97701.50;5024131;28;20602;-72
2023/07/20 09:16:47;;;;;;;;;;;;;;;27.31;50.20;97707.56;5050052;28;19925;-72
2023/07/20 09:19:15;;;;;;;;;;;;;;;27.62;48.58;97698.88;5039762;28;20028;-72
2023/07/20 09:21:41;;;;;;;;;;;;;;;28.02;49.24;97691.72;5040754;28;19926;-72
2023/07/20 09:24:08;;;;;;;;;;;;;;;27.64;47.92;97695.72;5046884;28;19949;-72
2023/07/20 09:26:41;;;;;;;;;;;;;;;26.83;45.18;97688.28;5044890;28;19956;-72
2023/07/20 09:29:08;;;;;;;;;;;;;;;27.30;46.88;97689.53;5040346;28;19925;-72
2023/07/20 09:31:36;;;;;;;;;;;;;;;27.12;46.66;97681.16;5039014;28;19930;-72
2023/07/20 09:34:03;;;;;;;;;;;;;;;27.63;47.43;97686.75;5042785;28;19961;-72
2023/07/20 09:36:29;;;;;;;;;;;;;;;27.72;45.20;97689.94;5046071;28;19967;-72
2023/07/20 09:38:55;;;;;;;;;;;;;;;27.85;47.37;97682.22;5045626;28;19925;-73
2023/07/20 09:41:22;;;;;;;;;;;;;;;27.59;46.80;97672.19;5042450;28;19925;-74
2023/07/20 09:43:48;;;;;;;;;;;;;;;28.21;46.82;97677.75;5042711;28;19964;-73
2023/07/20 09:46:17;;;;;;;;;;;;;;;28.15;46.72;97673.78;5052933;28;19928;-74
2023/07/20 09:48:53;;;;;;;;;;;;;;;28.19;45.01;97678.13;5045875;28;19956;-73
2023/07/20 09:51:20;;;;;;;;;;;;;;;27.88;45.64;97676.72;5042451;28;19925;-73
2023/07/20 09:53:48;;;;;;;;;;;;;;;27.67;44.98;97664.78;5024863;28;19975;-73
2023/07/20 09:56:16;;;;;;;;;;;;;;;27.99;45.61;97676.78;5045973;28;20006;-73
2023/07/20 09:58:42;;;;;;;;;;;;;;;28.50;45.48;97670.44;5046285;28;19925;-73
2023/07/20 10:01:10;;;;;;;;;;;;;;;28.72;45.25;97667.41;5043693;28;19926;-73
2023/07/20 10:03:38;;;;;;;;;;;;;;;28.31;44.13;97671.53;5042304;28;19925;-73
2023/07/20 10:06:07;;;;;;;;;;;;;;;27.53;44.36;97673.72;5043799;28;19929;-73
2023/07/20 10:08:35;;;;;;;;;;;;;;;27.51;44.59;97684.28;5045776;28;19935;-73
2023/07/20 10:11:03;;;;;;;;;;;;;;;27.59;44.53;97674.94;5044227;28;19932;-73
2023/07/20 10:13:30;;;;;;;;;;;;;;;28.37;45.22;97672.72;5024323;28;20041;-73
2023/07/20 10:16:00;;;;;;;;;;;;;;;28.61;44.43;97674.78;5050265;28;20015;-73
2023/07/20 10:18:29;;;;;;;;;;;;;;;28.32;43.99;97673.06;5045460;28;20468;-73
2023/07/20 10:20:56;;;;;;;;;;;;;;;28.10;44.04;97669.44;5045451;28;19964;-73
2023/07/20 10:23:24;;;;;;;;;;;;;;;28.63;44.13;97663.41;5041968;28;19926;-72
2023/07/20 10:25:51;;;;;;;;;;;;;;;28.96;43.47;97668.66;5042189;28;19932;-73
2023/07/20 10:28:17;;;;;;;;;;;;;;;29.11;43.65;97659.25;5029424;28;19957;-73
2023/07/20 10:30:44;;;;;;;;;;;;;;;28.98;43.36;97660.78;5046552;28;19967;-72
2023/07/20 10:33:11;;;;;;;;;;;;;;;28.99;43.80;97667.09;5044360;28;19926;-72
2023/07/20 10:35:51;;;;;;;;;;;;;;;28.14;44.20;97664.75;5042976;28;19932;-73
2023/07/20 10:38:18;;;;;;;;;;;;;;;29.00;42.86;97649.44;5046376;28;19925;-72
2023/07/20 10:40:54;;;;;;;;;;;;;;;28.11;40.79;97651.00;5046162;28;20261;-73
2023/07/20 10:43:20;;;;;;;;;;;;;;;27.97;43.14;97656.41;5042490;28;19933;-73
2023/07/20 10:45:49;;;;;;;;;;;;;;;28.50;42.91;97645.72;5047869;28;19961;-73
2023/07/20 10:48:16;;;;;;;;;;;;;;;28.69;42.38;97642.69;5045315;28;19929;-73
2023/07/20 10:50:43;;;;;;;;;;;;;;;29.21;42.73;97642.00;5044854;28;19952;-73
2023/07/20 10:53:16;;;;;;;;;;;;;;;30.07;41.13;97638.03;5042781;28;19932;-73
2023/07/20 10:55:43;;;;;;;;;;;;;;;29.90;40.36;97639.63;5041357;28;19945;-73
2023/07/20 10:58:14;;;;;;;;;;;;;;;28.65;39.77;97631.66;5043371;28;19926;-74
2023/07/20 11:00:56;;;;;;;;;;;;;;;27.68;41.82;97642.47;5044737;28;19946;-74
2023/07/20 11:03:30;;;;;;;;;;;;;;;28.54;42.06;97633.53;5032730;28;19936;-74
2023/07/20 11:05:57;;;;;;;;;;;;;;;28.68;41.48;97628.16;5032501;28;19936;-71
2023/07/20 11:08:39;;;;;;;;;;;;;;;28.62;41.77;97634.38;5032919;28;19936;-71
2023/07/20 11:11:22;;;;;;;;;;;;;;;29.24;41.20;97638.50;5032548;28;19961;-71
2023/07/20 11:13:56;;;;;;;;;;;;;;;29.34;40.69;97640.44;5032632;28;19956;-71
2023/07/20 11:16:32;;;;;;;;;;;;;;;29.45;40.57;97632.19;5044653;28;19992;-72
2023/07/20 11:18:59;;;;;;;;;;;;;;;29.16;41.10;97627.81;5043685;28;19984;-71
2023/07/20 11:21:25;;;;;;;;;;;;;;;29.43;40.54;97626.31;5040446;28;19929;-71
2023/07/20 11:23:52;;;;;;;;;;;;;;;29.49;40.46;97629.44;5040309;28;19965;-71
2023/07/20 11:26:19;;;;;;;;;;;;;;;29.58;40.99;97633.38;5022654;28;19981;-71
2023/07/20 11:28:49;;;;;;;;;;;;;;;29.53;40.66;97628.25;5040130;28;19937;-71
2023/07/20 11:31:17;;;;;;;;;;;;;;;28.79;40.31;97628.94;5025396;28;20016;-72
2023/07/20 11:33:43;;;;;;;;;;;;;;;28.64;41.40;97619.06;5043665;28;19926;-71
2023/07/20 11:36:09;;;;;;;;;;;;;;;29.02;41.52;97627.81;5041548;28;19952;-72
2023/07/20 11:38:36;;;;;;;;;;;;;;;28.65;40.99;97617.13;5040878;28;19930;-71
2023/07/20 11:41:03;;;;;;;;;;;;;;;28.95;40.86;97617.59;5047933;28;19920;-71
2023/07/20 11:43:30;;;;;;;;;;;;;;;29.15;40.74;97612.50;5045449;28;19925;-72
2023/07/20 11:45:57;;;;;;;;;;;;;;;29.14;40.96;97613.69;5025440;28;19979;-72
2023/07/20 11:48:24;;;;;;;;;;;;;;;29.18;41.04;97609.78;5035567;28;19944;-71
2023/07/20 11:50:51;;;;;;;;;;;;;;;29.43;40.44;97609.81;5025312;28;19925;-72
2023/07/20 11:53:17;;;;;;;;;;;;;;;29.31;39.94;97604.66;5022288;28;19964;-72
2023/07/20 11:55:44;;;;;;;;;;;;;;;29.30;40.17;97598.41;5039819;28;19925;-71
2023/07/20 11:58:10;;;;;;;;;;;;;;;29.46;39.96;97600.75;5042036;28;19947;-72
2023/07/20 12:00:38;;;;;;;;;;;;;;;29.35;39.84;97591.72;5043071;28;19925;-71
2023/07/20 12:03:06;;;;;;;;;;;;;;;29.02;40.37;97603.06;5023953;28;19931;-71
2023/07/20 12:05:34;;;;;;;;;;;;;;;29.15;40.54;97596.81;5039674;28;19960;-71
2023/07/20 12:08:00;;;;;;;;;;;;;;;29.17;40.50;97588.94;5040523;28;19925;-72
2023/07/20 12:10:28;;;;;;;;;;;;;;;29.25;39.97;97578.75;5042906;28;19925;-71
2023/07/20 12:12:54;;;;;;;;;;;;;;;29.35;40.63;97587.00;5042844;28;19947;-71
2023/07/20 12:15:22;;;;;;;;;;;;;;;29.43;40.51;97582.28;5042897;28;19925;-71
2023/07/20 12:17:50;;;;;;;;;;;;;;;29.48;40.16;97573.63;5043658;28;19921;-71
2023/07/20 12:20:25;;;;;;;;;;;;;;;29.39;40.16;97567.75;5042449;28;19925;-72
2023/07/20 12:22:53;;;;;;;;;;;;;;;29.38;40.23;97575.22;5042797;28;19992;-71
2023/07/20 12:25:19;;;;;;;;;;;;;;;29.39;39.87;97565.00;5031098;28;20379;-71
2023/07/20 12:27:46;;;;;;;;;;;;;;;29.29;38.87;97565.78;5013636;28;19972;-72
2023/07/20 12:30:13;;;;;;;;;;;;;;;29.15;39.55;97574.03;5031184;28;19931;-72
2023/07/20 12:32:40;;;;;;;;;;;;;;;29.16;39.96;97562.59;5030842;28;19941;-71
2023/07/20 12:35:06;;;;;;;;;;;;;;;28.95;39.91;97562.59;5030852;28;19929;-72
2023/07/20 12:37:33;;;;;;;;;;;;;;;28.75;39.13;97569.66;5030781;28;19957;-72
2023/07/20 12:40:00;;;;;;;;;;;;;;;28.96;40.19;97560.66;5030535;28;19992;-71
2023/07/20 12:42:27;;;;;;;;;;;;;;;29.20;40.36;97557.91;5030758;28;19989;-72
2023/07/20 12:44:54;;;;;;;;;;;;;;;29.36;40.34;97555.56;5030710;28;19967;-71
2023/07/20 12:47:20;;;;;;;;;;;;;;;29.49;39.53;97547.69;5046623;28;19926;-71
2023/07/20 12:49:46;;;;;;;;;;;;;;;29.36;40.03;97538.28;5038946;28;19972;-72